OBBI/BAH METAR and TAF weather

Enter ICAO airport designator
Station Type Date Time Source
OBBI METAR 2021/05/14 07:30 UTC NOAA

OBBI 140730Z 31013KT CAVOK 37/10 Q1004 NOSIG


Station Type Date Time Source
OBBI Decoded METAR 2021/05/14 07:30 UTC NOAA

Bahrain International Airport , Bahrain (OBBI) 26-16N 050-39E 2M
May 14, 2021 - 03:30 AM EDT / 2021.05.14 0730 UTC
Wind: from the NW (310 degrees) at 15 MPH (13 KT):0
Visibility: greater than 7 mile(s):0
Temperature: 98 F (37 C)
Heat index: 94.6 F (34.8 C):1
Dew Point: 50 F (10 C)
Relative Humidity: 19%
Pressure (altimeter): 29.65 in. Hg (1004 hPa)
ob: OBBI 140730Z 31013KT CAVOK 37/10 Q1004 NOSIG
cycle: 7

Station Type Date Time Source
OBBI TAF 2021/05/14 06:42 UTC NOAA

TAF TAF OBBI 140500Z 1406/1512 34010KT CAVOK
BECMG 1416/1418 VRB05KT

Example: see airport list